Terminal Aerodrome Forecast
Issued by NWS

Current Version | Previous Version | Text Only | Print | Product List | Glossary On
Versions: 1 2 3 4 5 6 7 8 9 10 11 12 13 14 15 16 17 18 19 20 21 22 23 24 25 26 27 28 29 30 31 32 33 34 35 36 37 38 39 40 41 42 43 44 45 46 47
000
FTAK31 PAFA 211904 AAB
TAFAQT
TAF AMD
PAQT 211904Z 2119/2218 05015KT 1SM BLSN BR FEW004 BKN008 OVC019
      TEMPO 2119/2122 4SM BR FEW004 SCT008 BKN015
     FM212200 09010KT 4SM -SN OVC020
     FM220900 23005KT P6SM OVC007
     FM221500 22008KT 4SM HZ OVC015=

USA.gov is the U.S. government's official web portal to all federal, state and local government web resources and services.